createdAt,value
2019-03-22T00:00:13.214Z,20.04
2019-03-22T00:01:13.146Z,20.06
2019-03-22T00:02:13.135Z,20.03
2019-03-22T00:03:13.125Z,20.06
2019-03-22T00:04:13.113Z,20.06
2019-03-22T00:05:13.144Z,20.04
2019-03-22T00:06:13.095Z,20.03
2019-03-22T00:07:13.081Z,20.04
2019-03-22T00:08:13.111Z,20.04
2019-03-22T00:09:13.061Z,20.03
2019-03-22T00:10:13.100Z,20.04
2019-03-22T00:11:13.042Z,20.04
2019-03-22T00:12:13.029Z,20.04
2019-03-22T00:13:13.065Z,20.03
2019-03-22T00:14:13.005Z,20.04
2019-03-22T00:15:12.994Z,20.03
2019-03-22T00:16:12.986Z,20.03
2019-03-22T00:17:12.972Z,20.04
2019-03-22T00:18:13.005Z,20.04
2019-03-22T00:19:12.950Z,20.03
2019-03-22T00:20:12.939Z,20.04
2019-03-22T00:21:12.972Z,20.03
2019-03-22T00:22:12.917Z,20.03
2019-03-22T00:23:12.926Z,20.03
2019-03-22T00:24:12.898Z,20.02
2019-03-22T00:25:12.885Z,20.03
2019-03-22T00:26:12.909Z,20.02
2019-03-22T00:27:16.674Z,20.03
2019-03-22T00:28:12.853Z,20.03
2019-03-22T00:29:12.842Z,20.02
2019-03-22T00:30:12.832Z,20.02
2019-03-22T00:31:12.860Z,20.03
2019-03-22T00:32:12.848Z,20.02
2019-03-22T00:33:12.799Z,20.02
2019-03-22T00:34:12.788Z,20.03
2019-03-22T00:35:12.776Z,20.03
2019-03-22T00:36:12.788Z,20.00
2019-03-22T00:37:12.793Z,20.02
2019-03-22T00:38:12.752Z,20.02
2019-03-22T00:39:12.732Z,20.02
2019-03-22T00:40:12.729Z,20.02
2019-03-22T00:41:12.711Z,20.02
2019-03-22T00:42:12.740Z,20.02
2019-03-22T00:43:12.690Z,20.02
2019-03-22T00:44:12.678Z,20.03
2019-03-22T00:45:12.668Z,20.00
2019-03-22T00:46:12.713Z,20.02
2019-03-22T00:47:12.647Z,20.02
2019-03-22T00:48:12.634Z,20.02
2019-03-22T00:49:12.624Z,20.02
2019-03-22T00:50:12.663Z,20.02
2019-03-22T00:51:12.599Z,20.02
2019-03-22T00:52:12.590Z,20.02
2019-03-22T00:53:12.579Z,20.02
2019-03-22T00:54:12.569Z,20.02
2019-03-22T00:55:12.598Z,20.00
2019-03-22T00:56:12.547Z,20.00
2019-03-22T00:57:12.536Z,20.00
2019-03-22T00:58:12.562Z,20.02
2019-03-22T00:59:12.515Z,20.00
2019-03-22T01:00:12.504Z,20.00
2019-03-22T01:01:12.497Z,20.00
2019-03-22T01:02:12.482Z,20.00
2019-03-22T01:03:12.513Z,20.00
2019-03-22T01:04:12.457Z,20.00
2019-03-22T01:05:12.452Z,19.99
2019-03-22T01:06:12.435Z,20.00
2019-03-22T01:07:12.425Z,20.02
2019-03-22T01:08:12.455Z,20.00
2019-03-22T01:09:12.407Z,20.00
2019-03-22T01:10:12.432Z,19.99
2019-03-22T01:11:12.421Z,20.00
2019-03-22T01:12:12.373Z,20.02
2019-03-22T01:13:12.360Z,20.00
2019-03-22T01:14:12.350Z,20.00
2019-03-22T01:15:12.340Z,20.00
2019-03-22T01:16:12.385Z,19.99
2019-03-22T01:17:12.316Z,20.00
2019-03-22T01:18:12.311Z,20.00
2019-03-22T01:19:12.294Z,20.00
2019-03-22T01:20:12.287Z,20.00
2019-03-22T01:21:12.309Z,20.00
2019-03-22T01:22:12.324Z,20.00
2019-03-22T01:23:12.250Z,20.00
2019-03-22T01:24:12.239Z,20.00
2019-03-22T01:25:12.235Z,20.02
2019-03-22T01:26:12.217Z,20.00
2019-03-22T01:27:12.255Z,20.00
2019-03-22T01:28:26.745Z,20.02
2019-03-22T01:29:12.173Z,20.00
2019-03-22T01:30:12.155Z,20.00
2019-03-22T01:31:12.151Z,20.00
2019-03-22T01:32:12.178Z,20.00
2019-03-22T01:33:12.130Z,20.00
2019-03-22T01:34:12.161Z,20.00
2019-03-22T01:35:12.101Z,20.00
2019-03-22T01:36:12.098Z,20.00
2019-03-22T01:37:12.087Z,19.99
2019-03-22T01:38:12.077Z,19.99
2019-03-22T01:39:12.107Z,20.00
2019-03-22T01:40:12.049Z,20.00
2019-03-22T01:41:12.039Z,20.00
2019-03-22T01:42:12.025Z,20.00
2019-03-22T01:43:12.020Z,19.99
2019-03-22T01:44:12.034Z,19.99
2019-03-22T01:45:12.090Z,19.96
2019-03-22T01:46:11.988Z,20.00
2019-03-22T01:47:11.973Z,20.00
2019-03-22T01:48:11.963Z,20.00
2019-03-22T01:49:11.952Z,19.99
2019-03-22T01:50:11.977Z,19.99
2019-03-22T01:51:11.933Z,19.99
2019-03-22T01:52:11.922Z,20.02
2019-03-22T01:53:11.910Z,19.99
2019-03-22T01:54:11.894Z,20.00
2019-03-22T01:55:11.916Z,19.96
2019-03-22T01:56:11.909Z,19.99
2019-03-22T01:57:11.870Z,19.99
2019-03-22T01:58:11.854Z,19.99
2019-03-22T01:59:11.841Z,19.99
2019-03-22T02:00:11.832Z,19.99
2019-03-22T02:01:11.857Z,19.99
2019-03-22T02:02:11.834Z,19.99
2019-03-22T02:03:11.800Z,19.99
2019-03-22T02:04:11.793Z,19.96
2019-03-22T02:05:11.801Z,19.99
2019-03-22T02:06:11.772Z,19.99
2019-03-22T02:07:11.787Z,19.99
2019-03-22T02:08:11.751Z,19.99
2019-03-22T02:09:11.739Z,19.99
2019-03-22T02:10:11.726Z,19.96
2019-03-22T02:11:11.715Z,19.96
2019-03-22T02:12:11.745Z,19.99
2019-03-22T02:13:11.694Z,19.96
2019-03-22T02:14:11.716Z,19.99
2019-03-22T02:15:11.676Z,19.99
2019-03-22T02:16:11.662Z,19.99
2019-03-22T02:17:11.674Z,19.99
2019-03-22T02:18:11.678Z,19.96
2019-03-22T02:19:11.631Z,19.96
2019-03-22T02:20:11.620Z,19.99
2019-03-22T02:21:11.606Z,19.96
2019-03-22T02:22:11.598Z,19.99
2019-03-22T02:23:11.629Z,19.99
2019-03-22T02:24:11.576Z,19.96
2019-03-22T02:25:11.565Z,19.96
2019-03-22T02:26:11.553Z,19.99
2019-03-22T02:27:11.541Z,19.99
2019-03-22T02:28:11.577Z,19.96
2019-03-22T02:29:11.524Z,19.96
2019-03-22T02:30:11.510Z,19.96
2019-03-22T02:31:11.500Z,19.96
2019-03-22T02:32:11.489Z,19.96
2019-03-22T02:33:11.504Z,19.96
2019-03-22T02:34:11.461Z,19.96
2019-03-22T02:35:26.855Z,19.99
2019-03-22T02:36:12.493Z,19.96
2019-03-22T02:37:11.431Z,19.96
2019-03-22T02:38:11.421Z,19.99
2019-03-22T02:39:11.522Z,19.99
2019-03-22T02:40:11.427Z,19.96
2019-03-22T02:41:11.388Z,19.95
2019-03-22T02:42:11.376Z,19.96
2019-03-22T02:43:11.369Z,19.99
2019-03-22T02:44:11.355Z,19.96
2019-03-22T02:45:11.372Z,19.96
2019-03-22T02:46:11.336Z,19.96
2019-03-22T02:47:11.334Z,19.96
2019-03-22T02:48:11.313Z,19.96
2019-03-22T02:49:11.302Z,19.96
2019-03-22T02:50:17.742Z,19.95
2019-03-22T02:51:12.315Z,19.96
2019-03-22T02:52:11.273Z,19.96
2019-03-22T02:53:11.258Z,19.96
2019-03-22T02:54:11.250Z,19.96
2019-03-22T02:55:11.240Z,19.96
2019-03-22T02:56:11.389Z,19.96
2019-03-22T02:57:11.216Z,19.96
2019-03-22T02:58:20.358Z,19.96
2019-03-22T02:59:12.206Z,19.96
2019-03-22T03:00:11.188Z,19.96
2019-03-22T03:01:11.224Z,19.96
2019-03-22T03:02:11.158Z,19.96
2019-03-22T03:03:11.155Z,19.96
2019-03-22T03:04:11.142Z,19.99
2019-03-22T03:05:11.126Z,19.96
2019-03-22T03:06:11.170Z,19.96
2019-03-22T03:07:11.109Z,19.95
2019-03-22T03:08:11.101Z,19.99
2019-03-22T03:09:11.087Z,19.96
2019-03-22T03:10:11.084Z,19.96
2019-03-22T03:11:11.096Z,19.95
2019-03-22T03:12:11.056Z,19.95
2019-03-22T03:13:11.075Z,19.96
2019-03-22T03:14:11.033Z,19.95
2019-03-22T03:15:11.029Z,19.95
2019-03-22T03:16:11.006Z,19.96
2019-03-22T03:17:11.002Z,19.96
2019-03-22T03:18:11.013Z,19.96
2019-03-22T03:19:10.982Z,19.96
2019-03-22T03:20:10.972Z,19.95
2019-03-22T03:21:10.958Z,19.95
2019-03-22T03:22:10.942Z,19.95
2019-03-22T03:23:10.969Z,19.96
2019-03-22T03:24:10.976Z,19.95
2019-03-22T03:25:10.911Z,19.95
2019-03-22T03:26:10.901Z,19.96
2019-03-22T03:27:10.893Z,19.95
2019-03-22T03:28:10.874Z,19.96
2019-03-22T03:29:10.908Z,19.95
2019-03-22T03:30:10.855Z,19.95
2019-03-22T03:31:10.846Z,19.95
2019-03-22T03:32:10.841Z,19.94
2019-03-22T03:33:10.827Z,19.94
2019-03-22T03:34:10.861Z,19.96
2019-03-22T03:35:10.800Z,19.96
2019-03-22T03:36:10.820Z,19.95
2019-03-22T03:37:10.797Z,19.95
2019-03-22T03:38:10.764Z,19.95
2019-03-22T03:39:10.762Z,19.96
2019-03-22T03:40:10.748Z,19.95
2019-03-22T03:41:10.766Z,19.95
2019-03-22T03:42:10.725Z,19.95
2019-03-22T03:43:10.713Z,19.95
2019-03-22T03:44:10.699Z,19.95
2019-03-22T03:45:10.698Z,19.96
2019-03-22T03:46:10.714Z,19.95
2019-03-22T03:47:10.834Z,19.95
2019-03-22T03:48:10.660Z,19.94
2019-03-22T03:49:10.652Z,19.95
2019-03-22T03:50:10.635Z,19.95
2019-03-22T03:51:10.664Z,19.95
2019-03-22T03:52:10.614Z,19.95
2019-03-22T03:53:10.596Z,19.95
2019-03-22T03:54:10.600Z,19.95
2019-03-22T03:55:10.586Z,19.94
2019-03-22T03:56:10.607Z,19.95
2019-03-22T03:57:10.566Z,19.95
2019-03-22T03:58:10.551Z,19.95
2019-03-22T03:59:10.540Z,19.95
2019-03-22T04:00:10.522Z,19.95
2019-03-22T04:01:10.550Z,19.95
2019-03-22T04:02:10.503Z,19.94
2019-03-22T04:03:10.500Z,19.95
2019-03-22T04:04:10.483Z,19.96
2019-03-22T04:05:14.095Z,19.95
2019-03-22T04:06:10.491Z,19.95
2019-03-22T04:07:10.448Z,19.94
2019-03-22T04:08:10.457Z,19.95
2019-03-22T04:09:10.425Z,19.94
2019-03-22T04:10:10.427Z,19.95
2019-03-22T04:11:10.432Z,19.95
2019-03-22T04:12:10.393Z,19.94
2019-03-22T04:13:10.389Z,19.95
2019-03-22T04:14:10.370Z,19.95
2019-03-22T04:15:10.363Z,19.94
2019-03-22T04:16:10.378Z,19.94
2019-03-22T04:17:10.381Z,19.95
2019-03-22T04:18:10.325Z,19.94
2019-03-22T04:19:10.313Z,19.95
2019-03-22T04:20:10.307Z,19.95
2019-03-22T04:21:10.305Z,19.94
2019-03-22T04:22:10.331Z,19.95
2019-03-22T04:23:10.281Z,19.95
2019-03-22T04:24:10.272Z,19.96
2019-03-22T04:25:10.257Z,19.95
2019-03-22T04:26:10.243Z,19.95
2019-03-22T04:27:10.268Z,19.95
2019-03-22T04:28:10.215Z,19.94
2019-03-22T04:29:10.205Z,19.95
2019-03-22T04:30:10.196Z,19.94
2019-03-22T04:31:10.186Z,19.94
2019-03-22T04:32:10.207Z,19.95
2019-03-22T04:33:10.211Z,19.94
2019-03-22T04:34:10.153Z,19.94
2019-03-22T04:35:10.140Z,19.94
2019-03-22T04:36:10.136Z,19.94
2019-03-22T04:37:10.127Z,19.95
2019-03-22T04:38:10.153Z,19.95
2019-03-22T04:39:10.097Z,19.95
2019-03-22T04:40:10.095Z,19.94
2019-03-22T04:41:10.091Z,19.94
2019-03-22T04:42:10.080Z,19.94
2019-03-22T04:43:10.115Z,19.95
2019-03-22T04:44:10.050Z,19.95
2019-03-22T04:45:10.034Z,19.95
2019-03-22T04:46:10.025Z,19.94
2019-03-22T04:47:10.007Z,19.94
2019-03-22T04:48:10.025Z,19.95
2019-03-22T04:49:09.992Z,19.94
2019-03-22T04:50:09.981Z,19.94
2019-03-22T04:51:09.987Z,19.94
2019-03-22T04:52:09.957Z,19.94
2019-03-22T04:53:09.948Z,19.94
2019-03-22T04:54:09.966Z,19.94
2019-03-22T04:55:09.933Z,19.94
2019-03-22T04:56:09.938Z,19.94
2019-03-22T04:57:09.899Z,19.94
2019-03-22T04:58:09.886Z,19.95
2019-03-22T04:59:18.341Z,19.92
2019-03-22T05:00:10.872Z,19.94
2019-03-22T05:01:09.860Z,19.94
2019-03-22T05:02:09.850Z,19.94
2019-03-22T05:03:09.833Z,19.94
2019-03-22T05:04:09.865Z,19.94
2019-03-22T05:05:09.819Z,19.94
2019-03-22T05:06:09.803Z,19.94
2019-03-22T05:07:09.794Z,19.95
2019-03-22T05:08:09.779Z,19.94
2019-03-22T05:09:09.804Z,19.94
2019-03-22T05:10:09.760Z,19.94
2019-03-22T05:11:09.755Z,19.94
2019-03-22T05:12:09.741Z,19.92
2019-03-22T05:13:09.728Z,19.94
2019-03-22T05:14:09.747Z,19.94
2019-03-22T05:15:09.704Z,19.95
2019-03-22T05:16:09.703Z,19.94
2019-03-22T05:17:09.690Z,19.94
2019-03-22T05:18:09.674Z,19.95
2019-03-22T05:19:09.766Z,19.96
2019-03-22T05:20:09.658Z,19.96
2019-03-22T05:21:09.646Z,19.95
2019-03-22T05:22:09.656Z,19.96
2019-03-22T05:23:09.619Z,20.00
2019-03-22T05:24:09.650Z,19.99
2019-03-22T05:25:09.601Z,20.00
2019-03-22T05:26:09.585Z,20.02
2019-03-22T05:27:09.583Z,20.03
2019-03-22T05:28:09.564Z,20.04
2019-03-22T05:29:09.576Z,20.04
2019-03-22T05:30:09.539Z,20.06
2019-03-22T05:31:09.530Z,20.07
2019-03-22T05:32:09.548Z,20.09
2019-03-22T05:33:09.517Z,20.09
2019-03-22T05:34:09.496Z,20.11
2019-03-22T05:35:09.487Z,20.11
2019-03-22T05:36:09.473Z,20.14
2019-03-22T05:37:09.505Z,20.14
2019-03-22T05:38:09.469Z,20.16
2019-03-22T05:39:09.446Z,20.19
2019-03-22T05:40:09.433Z,20.19
2019-03-22T05:41:09.499Z,20.19
2019-03-22T05:42:09.444Z,20.22
2019-03-22T05:43:09.403Z,20.22
2019-03-22T05:44:09.388Z,20.25
2019-03-22T05:45:09.384Z,20.25
2019-03-22T05:46:09.394Z,20.26
2019-03-22T05:47:09.363Z,20.26
2019-03-22T05:48:09.348Z,20.29
2019-03-22T05:49:09.346Z,20.28
2019-03-22T05:50:09.367Z,20.29
2019-03-22T05:51:09.320Z,20.31
2019-03-22T05:52:09.346Z,20.31
2019-03-22T05:53:09.328Z,20.32
2019-03-22T05:54:09.286Z,20.31
2019-03-22T05:55:09.270Z,20.34
2019-03-22T05:56:09.267Z,20.32
2019-03-22T05:57:13.715Z,20.34
2019-03-22T05:58:09.276Z,20.32
2019-03-22T05:59:09.235Z,20.34
2019-03-22T06:00:09.250Z,20.34
2019-03-22T06:01:09.208Z,20.34
2019-03-22T06:02:09.222Z,20.34
2019-03-22T06:03:09.230Z,20.32
2019-03-22T06:04:09.175Z,20.32
2019-03-22T06:05:09.174Z,20.34
2019-03-22T06:06:09.153Z,20.36
2019-03-22T06:07:09.150Z,20.34
2019-03-22T06:08:09.181Z,20.36
2019-03-22T06:09:09.122Z,20.34
2019-03-22T06:10:09.116Z,20.34
2019-03-22T06:11:09.097Z,20.34
2019-03-22T06:12:09.100Z,20.34
2019-03-22T06:13:09.125Z,20.34
2019-03-22T06:14:09.073Z,20.32
2019-03-22T06:15:09.061Z,20.32
2019-03-22T06:16:09.052Z,20.34
2019-03-22T06:17:09.032Z,20.34
2019-03-22T06:18:09.063Z,20.34
2019-03-22T06:19:09.018Z,20.34
2019-03-22T06:20:09.003Z,20.32
2019-03-22T06:21:08.996Z,20.32
2019-03-22T06:22:08.980Z,20.32
2019-03-22T06:23:09.002Z,20.32
2019-03-22T06:24:08.956Z,20.32
2019-03-22T06:25:08.967Z,20.31
2019-03-22T06:26:08.939Z,20.31
2019-03-22T06:27:08.932Z,20.29
2019-03-22T06:28:08.957Z,20.31
2019-03-22T06:29:08.911Z,20.31
2019-03-22T06:30:08.901Z,20.29
2019-03-22T06:31:08.888Z,20.28
2019-03-22T06:32:08.871Z,20.29
2019-03-22T06:33:08.905Z,20.28
2019-03-22T06:34:08.855Z,20.29
2019-03-22T06:35:08.849Z,20.28
2019-03-22T06:36:08.832Z,20.29
2019-03-22T06:37:08.823Z,20.28
2019-03-22T06:38:08.867Z,20.28
2019-03-22T06:39:08.865Z,20.26
2019-03-22T06:40:08.790Z,20.25
2019-03-22T06:41:08.780Z,20.26
2019-03-22T06:42:08.768Z,20.26
2019-03-22T06:43:08.801Z,20.25
2019-03-22T06:44:08.741Z,20.25
2019-03-22T06:45:08.730Z,20.25
2019-03-22T06:46:08.719Z,20.26
2019-03-22T06:47:10.959Z,20.25
2019-03-22T06:48:08.745Z,20.25
2019-03-22T06:49:08.687Z,20.25
2019-03-22T06:50:08.689Z,20.25
2019-03-22T06:51:08.697Z,20.25
2019-03-22T06:52:08.659Z,20.25
2019-03-22T06:53:08.644Z,20.24
2019-03-22T06:54:08.636Z,20.24
2019-03-22T06:55:08.623Z,20.24
2019-03-22T06:56:08.647Z,20.24
2019-03-22T06:57:08.602Z,20.22
2019-03-22T06:58:08.591Z,20.24
2019-03-22T06:59:08.585Z,20.24
2019-03-22T07:00:08.606Z,20.22
2019-03-22T07:01:08.630Z,20.24
2019-03-22T07:02:08.550Z,20.24
2019-03-22T07:03:08.562Z,20.24
2019-03-22T07:04:08.528Z,20.24
2019-03-22T07:05:08.543Z,20.22
2019-03-22T07:06:08.545Z,20.22
2019-03-22T07:07:08.495Z,20.24
2019-03-22T07:08:08.486Z,20.25
2019-03-22T07:09:08.476Z,20.24
2019-03-22T07:10:08.458Z,20.22
2019-03-22T07:11:08.594Z,20.24
2019-03-22T07:12:08.442Z,20.24
2019-03-22T07:13:08.430Z,20.24
2019-03-22T07:14:08.412Z,20.24
2019-03-22T07:15:08.403Z,20.24
2019-03-22T07:16:08.438Z,20.22
2019-03-22T07:17:08.388Z,20.24
2019-03-22T07:18:08.369Z,20.25
2019-03-22T07:19:08.364Z,20.24
2019-03-22T07:20:08.351Z,20.24
2019-03-22T07:21:08.378Z,20.25
2019-03-22T07:22:08.361Z,20.25
2019-03-22T07:23:08.324Z,20.26
2019-03-22T07:24:08.311Z,20.22
2019-03-22T07:25:08.300Z,20.24
2019-03-22T07:26:08.288Z,20.25
2019-03-22T07:27:08.307Z,20.24
2019-03-22T07:28:08.295Z,20.24
2019-03-22T07:29:08.253Z,20.26
2019-03-22T07:30:18.140Z,20.25
2019-03-22T07:31:09.231Z,20.25
2019-03-22T07:32:08.236Z,20.25
2019-03-22T07:33:08.256Z,20.25
2019-03-22T07:34:08.226Z,20.25
2019-03-22T07:35:08.189Z,20.25
2019-03-22T07:36:08.178Z,20.25
2019-03-22T07:37:08.168Z,20.25
2019-03-22T07:38:08.197Z,20.25
2019-03-22T07:39:08.146Z,20.25
2019-03-22T07:40:08.136Z,20.26
2019-03-22T07:41:08.122Z,20.26
2019-03-22T07:42:08.116Z,20.26
2019-03-22T07:43:08.143Z,20.26
2019-03-22T07:44:08.094Z,20.26
2019-03-22T07:45:08.086Z,20.25
2019-03-22T07:46:08.070Z,20.25
2019-03-22T07:47:08.057Z,20.25
2019-03-22T07:48:08.084Z,20.25
2019-03-22T07:49:08.035Z,20.25
2019-03-22T07:50:08.054Z,20.25
2019-03-22T07:51:08.017Z,20.25
2019-03-22T07:52:08.012Z,20.25
2019-03-22T07:53:07.997Z,20.26
2019-03-22T07:54:07.989Z,20.25
2019-03-22T07:55:08.009Z,20.26
2019-03-22T07:56:07.964Z,20.25
2019-03-22T07:57:07.958Z,20.26
2019-03-22T07:58:07.945Z,20.26
2019-03-22T07:59:09.904Z,20.25
2019-03-22T08:00:07.945Z,20.26
2019-03-22T08:01:07.907Z,20.26
2019-03-22T08:02:07.901Z,20.26
2019-03-22T08:03:07.888Z,20.26
2019-03-22T08:04:07.883Z,20.26
2019-03-22T08:05:07.903Z,20.25
2019-03-22T08:06:07.861Z,20.25
2019-03-22T08:07:07.868Z,20.26
2019-03-22T08:08:07.839Z,20.25
2019-03-22T08:09:07.830Z,20.26
2019-03-22T08:10:07.845Z,20.26
2019-03-22T08:11:07.809Z,20.26
2019-03-22T08:12:07.799Z,20.26
2019-03-22T08:13:07.785Z,20.26
2019-03-22T08:14:07.774Z,20.26
2019-03-22T08:15:08.505Z,20.26
2019-03-22T08:16:07.747Z,20.26
2019-03-22T08:17:07.780Z,20.28
2019-03-22T08:18:07.730Z,20.26
2019-03-22T08:19:07.730Z,20.26
2019-03-22T08:20:07.709Z,20.26
2019-03-22T08:21:07.693Z,20.26
2019-03-22T08:22:07.716Z,20.28
2019-03-22T08:23:07.673Z,20.26
2019-03-22T08:24:07.660Z,20.28
2019-03-22T08:25:07.652Z,20.26
2019-03-22T08:26:07.704Z,20.28
2019-03-22T08:27:07.630Z,20.26
2019-03-22T08:28:07.623Z,20.26
2019-03-22T08:29:07.603Z,20.28
2019-03-22T08:30:07.628Z,20.28
2019-03-22T08:31:07.666Z,20.29
2019-03-22T08:32:07.581Z,20.28
2019-03-22T08:33:07.569Z,20.28
2019-03-22T08:34:07.553Z,20.28
2019-03-22T08:35:07.541Z,20.28
2019-03-22T08:36:07.571Z,20.29
2019-03-22T08:37:07.529Z,20.26
2019-03-22T08:38:07.583Z,20.28
2019-03-22T08:39:07.504Z,20.29
2019-03-22T08:40:07.506Z,20.28
2019-03-22T08:41:07.483Z,20.29
2019-03-22T08:42:07.478Z,20.29
2019-03-22T08:43:07.504Z,20.29
2019-03-22T08:44:07.478Z,20.29
2019-03-22T08:45:07.438Z,20.29
2019-03-22T08:46:07.438Z,20.29
2019-03-22T08:47:07.442Z,20.28
2019-03-22T08:48:07.456Z,20.29
2019-03-22T08:49:09.551Z,20.29
2019-03-22T08:50:07.379Z,20.29
2019-03-22T08:51:07.405Z,20.29
2019-03-22T08:52:07.367Z,20.28
2019-03-22T08:53:07.387Z,20.28
2019-03-22T08:54:07.339Z,20.28
2019-03-22T08:55:07.335Z,20.28
2019-03-22T08:56:07.317Z,20.26
2019-03-22T08:57:07.382Z,20.26
2019-03-22T08:58:07.297Z,20.28
2019-03-22T08:59:07.314Z,20.26
2019-03-22T09:00:07.274Z,20.28
2019-03-22T09:01:07.269Z,20.26
2019-03-22T09:02:08.394Z,20.26
2019-03-22T09:03:07.241Z,20.26
2019-03-22T09:04:07.282Z,20.28
2019-03-22T09:05:07.234Z,20.26
2019-03-22T09:06:07.956Z,20.26
2019-03-22T09:07:07.193Z,20.26
2019-03-22T09:08:07.182Z,20.25
2019-03-22T09:09:07.292Z,20.26
2019-03-22T09:10:07.186Z,20.24
2019-03-22T09:11:07.153Z,20.26
2019-03-22T09:12:07.161Z,20.25
2019-03-22T09:13:07.143Z,20.25
2019-03-22T09:14:07.178Z,20.26
2019-03-22T09:15:07.154Z,20.26
2019-03-22T09:16:07.126Z,20.26
2019-03-22T09:17:07.088Z,20.25
2019-03-22T09:18:07.079Z,20.25
2019-03-22T09:19:07.067Z,20.25
2019-03-22T09:20:07.108Z,20.26
2019-03-22T09:21:07.040Z,20.26
2019-03-22T09:22:07.036Z,20.25
2019-03-22T09:23:07.029Z,20.24
2019-03-22T09:24:07.014Z,20.25
2019-03-22T09:25:07.034Z,20.25
2019-03-22T09:26:06.988Z,20.25
2019-03-22T09:27:06.979Z,20.24
2019-03-22T09:28:06.984Z,20.25
2019-03-22T09:29:06.983Z,20.25
2019-03-22T09:30:06.982Z,20.25
2019-03-22T09:31:10.994Z,20.24
2019-03-22T09:32:06.927Z,20.25
2019-03-22T09:33:06.920Z,20.24
2019-03-22T09:34:06.907Z,20.25
2019-03-22T09:35:06.907Z,20.24
2019-03-22T09:36:06.993Z,20.24
2019-03-22T09:37:08.997Z,20.24
2019-03-22T09:38:12.898Z,20.25
2019-03-22T09:39:07.891Z,20.24
2019-03-22T09:40:08.399Z,20.25
2019-03-22T09:41:06.871Z,20.25
2019-03-22T09:42:06.820Z,20.25
2019-03-22T09:43:06.814Z,20.24
2019-03-22T09:44:06.818Z,20.25
2019-03-22T09:45:06.836Z,20.25
2019-03-22T09:46:06.915Z,20.24
2019-03-22T09:47:06.834Z,20.25
2019-03-22T09:48:06.761Z,20.24
2019-03-22T09:49:06.780Z,20.24
2019-03-22T09:50:06.726Z,20.25
2019-03-22T09:51:06.770Z,20.25
2019-03-22T09:52:06.746Z,20.24
2019-03-22T09:53:06.768Z,20.22
2019-03-22T09:54:06.790Z,20.24
2019-03-22T09:55:13.520Z,20.25
2019-03-22T09:56:07.754Z,20.24
2019-03-22T09:57:06.709Z,20.24
2019-03-22T09:58:06.680Z,20.24
2019-03-22T09:59:06.665Z,20.24
2019-03-22T10:00:06.621Z,20.24
2019-03-22T10:01:06.661Z,20.22
2019-03-22T10:02:06.698Z,20.24
2019-03-22T10:03:06.628Z,20.24
2019-03-22T10:04:06.595Z,20.22
2019-03-22T10:05:06.592Z,20.22
2019-03-22T10:06:06.556Z,20.22
2019-03-22T10:07:06.614Z,20.24
2019-03-22T10:08:06.598Z,20.22
2019-03-22T10:09:06.543Z,20.22
2019-03-22T10:10:06.554Z,20.22
2019-03-22T10:11:06.500Z,20.21
2019-03-22T10:12:06.529Z,20.22
2019-03-22T10:13:06.544Z,20.21
2019-03-22T10:14:06.487Z,20.21
2019-03-22T10:15:06.496Z,20.21
2019-03-22T10:16:06.454Z,20.21
2019-03-22T10:17:06.491Z,20.22
2019-03-22T10:18:06.468Z,20.21
2019-03-22T10:19:06.419Z,20.21
2019-03-22T10:20:06.435Z,20.21
2019-03-22T10:21:06.432Z,20.21
2019-03-22T10:22:06.427Z,20.21
2019-03-22T10:23:06.430Z,20.22
2019-03-22T10:24:06.399Z,20.21
2019-03-22T10:25:06.358Z,20.21
2019-03-22T10:26:06.354Z,20.21
2019-03-22T10:27:06.346Z,20.21
2019-03-22T10:28:06.359Z,20.21
2019-03-22T10:29:07.126Z,20.22
2019-03-22T10:30:06.301Z,20.22
2019-03-22T10:31:06.291Z,20.21
2019-03-22T10:32:06.276Z,20.21
2019-03-22T10:33:06.380Z,20.21
2019-03-22T10:34:06.287Z,20.22
2019-03-22T10:35:06.249Z,20.21
2019-03-22T10:36:06.284Z,20.21
2019-03-22T10:37:06.223Z,20.21
2019-03-22T10:38:15.376Z,20.21
2019-03-22T10:39:07.213Z,20.21
2019-03-22T10:40:06.219Z,20.22
2019-03-22T10:41:06.221Z,20.19
2019-03-22T10:42:06.201Z,20.19
2019-03-22T10:43:06.222Z,20.21
2019-03-22T10:44:06.143Z,20.21
2019-03-22T10:45:06.143Z,20.21
2019-03-22T10:46:07.950Z,20.21
2019-03-22T10:47:06.164Z,20.22
2019-03-22T10:48:06.172Z,20.19
2019-03-22T10:49:06.103Z,20.21
2019-03-22T10:50:06.087Z,20.19
2019-03-22T10:51:06.107Z,20.21
2019-03-22T10:52:06.090Z,20.22
2019-03-22T10:53:06.114Z,20.22
2019-03-22T10:54:06.085Z,20.21
2019-03-22T10:55:23.108Z,20.22
2019-03-22T10:56:07.025Z,20.24
2019-03-22T10:57:06.011Z,20.25
2019-03-22T10:58:19.742Z,20.25
2019-03-22T10:59:07.096Z,20.26
2019-03-22T11:00:05.975Z,20.26
2019-03-22T11:01:08.213Z,20.26
2019-03-22T11:02:07.788Z,20.26
2019-03-22T11:03:05.942Z,20.28
2019-03-22T11:05:05.957Z,20.29
2019-03-22T11:06:05.911Z,20.29
2019-03-22T11:07:05.898Z,20.28
2019-03-22T11:08:05.891Z,20.28
2019-03-22T11:09:05.880Z,20.29
2019-03-22T11:10:05.898Z,20.29
2019-03-22T11:11:05.857Z,20.28
2019-03-22T11:12:12.170Z,20.29
2019-03-22T11:13:06.834Z,20.29
2019-03-22T11:14:05.829Z,20.29
2019-03-22T11:15:05.864Z,20.29
2019-03-22T11:16:05.804Z,20.31
2019-03-22T11:17:05.796Z,20.31
2019-03-22T11:18:05.780Z,20.29
2019-03-22T11:19:05.780Z,20.29
2019-03-22T11:20:05.804Z,20.29
2019-03-22T11:21:05.852Z,20.29
2019-03-22T11:22:05.751Z,20.31
2019-03-22T11:23:05.734Z,20.29
2019-03-22T11:24:05.717Z,20.29
2019-03-22T11:25:05.741Z,20.29
2019-03-22T11:26:05.720Z,20.29
2019-03-22T11:27:05.686Z,20.32
2019-03-22T11:28:05.690Z,20.31
2019-03-22T11:29:05.688Z,20.31
2019-03-22T11:30:05.659Z,20.31
2019-03-22T11:31:05.677Z,20.32
2019-03-22T11:32:12.667Z,20.31
2019-03-22T11:33:06.630Z,20.32
2019-03-22T11:34:05.609Z,20.32
2019-03-22T11:35:05.599Z,20.34
2019-03-22T11:36:05.617Z,20.34
2019-03-22T11:37:07.680Z,20.32
2019-03-22T11:38:05.571Z,20.34
2019-03-22T11:39:14.956Z,20.32
2019-03-22T11:40:06.543Z,20.34
2019-03-22T11:41:05.562Z,20.36
2019-03-22T11:42:05.533Z,20.36
2019-03-22T11:43:08.818Z,20.34
2019-03-22T11:44:05.505Z,20.34
2019-03-22T11:45:05.488Z,20.36
2019-03-22T11:46:05.503Z,20.36
2019-03-22T11:47:05.466Z,20.36
2019-03-22T11:48:05.460Z,20.37
2019-03-22T11:49:05.473Z,20.37
2019-03-22T11:50:05.445Z,20.36
2019-03-22T11:51:05.431Z,20.37
2019-03-22T11:52:05.429Z,20.39
2019-03-22T11:53:05.441Z,20.37
2019-03-22T11:54:05.393Z,20.39
2019-03-22T11:55:05.392Z,20.39
2019-03-22T11:56:05.379Z,20.37
2019-03-22T11:57:05.395Z,20.39
2019-03-22T11:58:05.349Z,20.39
2019-03-22T11:59:05.371Z,20.39
2019-03-22T12:00:05.369Z,20.37
2019-03-22T12:01:05.322Z,20.39
2019-03-22T12:02:05.311Z,20.39
2019-03-22T12:03:05.297Z,20.39
2019-03-22T12:04:05.323Z,20.39
2019-03-22T12:05:05.282Z,20.40
2019-03-22T12:06:05.295Z,20.40
2019-03-22T12:07:05.256Z,20.40
2019-03-22T12:08:05.245Z,20.40
2019-03-22T12:09:05.268Z,20.40
2019-03-22T12:10:05.256Z,20.39
2019-03-22T12:11:05.256Z,20.39
2019-03-22T12:12:05.203Z,20.40
2019-03-22T12:13:05.197Z,20.40
2019-03-22T12:14:05.183Z,20.41
2019-03-22T12:15:05.175Z,20.40
2019-03-22T12:16:05.206Z,20.40
2019-03-22T12:17:05.156Z,20.41
2019-03-22T12:18:05.140Z,20.40
2019-03-22T12:19:05.128Z,20.40
2019-03-22T12:20:05.116Z,20.40
2019-03-22T12:21:05.142Z,20.40
2019-03-22T12:22:05.099Z,20.40
2019-03-22T12:23:05.088Z,20.41
2019-03-22T12:24:05.070Z,20.40
2019-03-22T12:25:05.112Z,20.40
2019-03-22T12:26:06.510Z,20.41
2019-03-22T12:27:05.045Z,20.41
2019-03-22T12:28:05.063Z,20.41
2019-03-22T12:29:05.023Z,20.41
2019-03-22T12:30:05.040Z,20.41
2019-03-22T12:31:05.058Z,20.40
2019-03-22T12:32:04.985Z,20.41
2019-03-22T12:33:05.010Z,20.43
2019-03-22T12:34:04.971Z,20.43
2019-03-22T12:35:05.001Z,20.43
2019-03-22T12:36:04.947Z,20.43
2019-03-22T12:37:04.931Z,20.44
2019-03-22T12:38:04.930Z,20.43
2019-03-22T12:39:04.912Z,20.44
2019-03-22T12:40:04.950Z,20.44
2019-03-22T12:41:04.896Z,20.44
2019-03-22T12:42:04.887Z,20.43
2019-03-22T12:43:04.864Z,20.44
2019-03-22T12:44:04.858Z,20.43
2019-03-22T12:45:04.920Z,20.44
2019-03-22T12:46:04.838Z,20.44
2019-03-22T12:47:04.831Z,20.44
2019-03-22T12:48:04.821Z,20.43
2019-03-22T12:49:04.818Z,20.41
2019-03-22T12:50:04.835Z,20.41
2019-03-22T12:51:04.818Z,20.41
2019-03-22T12:52:04.770Z,20.40
2019-03-22T12:53:04.796Z,20.40